sensor_id;sensor_type;location;lat;lon;timestamp;P1;durP1;ratioP1;P2;durP2;ratioP2
48665;SDS011;34452;50.796;4.994;2023-02-22T00:00:09;124.68;;;20.73;;
48665;SDS011;34452;50.796;4.994;2023-02-22T00:02:43;85.00;;;20.30;;
48665;SDS011;34452;50.796;4.994;2023-02-22T00:05:12;91.28;;;21.25;;
48665;SDS011;34452;50.796;4.994;2023-02-22T00:07:41;93.00;;;19.90;;
48665;SDS011;34452;50.796;4.994;2023-02-22T00:10:08;122.63;;;21.05;;
48665;SDS011;34452;50.796;4.994;2023-02-22T00:12:38;118.97;;;21.08;;
48665;SDS011;34452;50.796;4.994;2023-02-22T00:15:05;128.82;;;20.92;;
48665;SDS011;34452;50.796;4.994;2023-02-22T00:17:31;149.50;;;21.55;;
48665;SDS011;34452;50.796;4.994;2023-02-22T00:22:23;126.32;;;20.70;;
48665;SDS011;34452;50.796;4.994;2023-02-22T00:24:49;222.85;;;22.95;;
48665;SDS011;34452;50.796;4.994;2023-02-22T00:27:14;248.07;;;25.10;;
48665;SDS011;34452;50.796;4.994;2023-02-22T00:29:52;295.02;;;28.15;;
48665;SDS011;34452;50.796;4.994;2023-02-22T00:32:20;225.23;;;26.20;;
48665;SDS011;34452;50.796;4.994;2023-02-22T00:34:49;440.75;;;36.67;;
48665;SDS011;34452;50.796;4.994;2023-02-22T00:37:16;368.83;;;35.92;;
48665;SDS011;34452;50.796;4.994;2023-02-22T00:39:44;483.35;;;38.60;;
48665;SDS011;34452;50.796;4.994;2023-02-22T00:42:12;236.32;;;27.05;;
48665;SDS011;34452;50.796;4.994;2023-02-22T00:44:38;280.90;;;30.30;;
48665;SDS011;34452;50.796;4.994;2023-02-22T00:47:03;182.90;;;28.30;;
48665;SDS011;34452;50.796;4.994;2023-02-22T00:49:29;174.20;;;25.10;;
48665;SDS011;34452;50.796;4.994;2023-02-22T00:51:55;505.73;;;39.70;;
48665;SDS011;34452;50.796;4.994;2023-02-22T00:54:21;178.30;;;23.02;;
48665;SDS011;34452;50.796;4.994;2023-02-22T00:56:47;233.60;;;24.65;;
48665;SDS011;34452;50.796;4.994;2023-02-22T00:59:14;204.90;;;23.38;;
48665;SDS011;34452;50.796;4.994;2023-02-22T01:04:07;171.75;;;19.63;;
48665;SDS011;34452;50.796;4.994;2023-02-22T01:06:34;136.07;;;18.65;;
48665;SDS011;34452;50.796;4.994;2023-02-22T01:09:00;124.15;;;19.50;;
48665;SDS011;34452;50.796;4.994;2023-02-22T01:11:27;433.55;;;35.50;;
48665;SDS011;34452;50.796;4.994;2023-02-22T01:13:53;108.63;;;22.85;;
48665;SDS011;34452;50.796;4.994;2023-02-22T01:18:45;170.43;;;25.70;;
48665;SDS011;34452;50.796;4.994;2023-02-22T01:21:11;370.08;;;33.13;;
48665;SDS011;34452;50.796;4.994;2023-02-22T01:23:36;315.20;;;31.00;;
48665;SDS011;34452;50.796;4.994;2023-02-22T01:26:02;255.73;;;26.48;;
48665;SDS011;34452;50.796;4.994;2023-02-22T01:28:30;77.25;;;17.17;;
48665;SDS011;34452;50.796;4.994;2023-02-22T01:30:56;105.65;;;17.90;;
48665;SDS011;34452;50.796;4.994;2023-02-22T01:33:22;83.57;;;16.38;;
48665;SDS011;34452;50.796;4.994;2023-02-22T01:35:48;121.72;;;18.50;;
48665;SDS011;34452;50.796;4.994;2023-02-22T01:38:15;349.70;;;32.90;;
48665;SDS011;34452;50.796;4.994;2023-02-22T01:43:21;62.53;;;14.00;;
48665;SDS011;34452;50.796;4.994;2023-02-22T01:48:28;241.32;;;25.67;;
48665;SDS011;34452;50.796;4.994;2023-02-22T01:54:13;146.40;;;20.17;;
48665;SDS011;34452;50.796;4.994;2023-02-22T01:56:46;85.43;;;15.30;;
48665;SDS011;34452;50.796;4.994;2023-02-22T01:59:18;341.15;;;32.92;;
48665;SDS011;34452;50.796;4.994;2023-02-22T02:01:46;41.38;;;13.45;;
48665;SDS011;34452;50.796;4.994;2023-02-22T02:04:14;64.68;;;15.13;;
48665;SDS011;34452;50.796;4.994;2023-02-22T02:06:43;35.30;;;12.95;;
48665;SDS011;34452;50.796;4.994;2023-02-22T02:11:40;64.53;;;13.52;;
48665;SDS011;34452;50.796;4.994;2023-02-22T02:14:07;39.58;;;15.60;;
48665;SDS011;34452;50.796;4.994;2023-02-22T02:16:36;175.35;;;75.15;;
48665;SDS011;34452;50.796;4.994;2023-02-22T02:22:09;121.97;;;31.40;;
48665;SDS011;34452;50.796;4.994;2023-02-22T02:27:40;81.60;;;14.07;;
48665;SDS011;34452;50.796;4.994;2023-02-22T02:36:01;206.45;;;21.80;;
48665;SDS011;34452;50.796;4.994;2023-02-22T02:41:26;249.02;;;21.08;;
48665;SDS011;34452;50.796;4.994;2023-02-22T02:44:10;61.90;;;16.30;;
48665;SDS011;34452;50.796;4.994;2023-02-22T02:49:38;113.97;;;15.55;;
48665;SDS011;34452;50.796;4.994;2023-02-22T02:52:13;107.80;;;13.02;;
48665;SDS011;34452;50.796;4.994;2023-02-22T02:54:43;63.40;;;17.58;;
48665;SDS011;34452;50.796;4.994;2023-02-22T02:57:11;61.08;;;13.02;;
48665;SDS011;34452;50.796;4.994;2023-02-22T02:59:37;46.42;;;11.80;;
48665;SDS011;34452;50.796;4.994;2023-02-22T03:12:35;78.88;;;13.10;;
48665;SDS011;34452;50.796;4.994;2023-02-22T03:15:36;91.47;;;10.85;;
48665;SDS011;34452;50.796;4.994;2023-02-22T03:29:33;37.20;;;16.27;;
48665;SDS011;34452;50.796;4.994;2023-02-22T03:32:06;31.77;;;16.17;;
48665;SDS011;34452;50.796;4.994;2023-02-22T03:34:40;27.85;;;12.73;;
48665;SDS011;34452;50.796;4.994;2023-02-22T03:37:13;22.30;;;10.20;;
48665;SDS011;34452;50.796;4.994;2023-02-22T03:39:42;18.48;;;9.43;;
48665;SDS011;34452;50.796;4.994;2023-02-22T03:42:12;41.22;;;24.58;;
48665;SDS011;34452;50.796;4.994;2023-02-22T03:44:42;73.90;;;39.10;;
48665;SDS011;34452;50.796;4.994;2023-02-22T03:47:11;31.20;;;19.75;;
48665;SDS011;34452;50.796;4.994;2023-02-22T03:49:43;83.28;;;50.65;;
48665;SDS011;34452;50.796;4.994;2023-02-22T03:52:31;23.65;;;15.27;;
48665;SDS011;34452;50.796;4.994;2023-02-22T03:54:59;29.50;;;13.68;;
48665;SDS011;34452;50.796;4.994;2023-02-22T03:57:27;25.10;;;10.50;;
48665;SDS011;34452;50.796;4.994;2023-02-22T03:59:57;28.30;;;10.00;;
48665;SDS011;34452;50.796;4.994;2023-02-22T04:02:23;27.77;;;14.32;;
48665;SDS011;34452;50.796;4.994;2023-02-22T04:04:49;23.75;;;10.90;;
48665;SDS011;34452;50.796;4.994;2023-02-22T04:07:15;24.13;;;10.07;;
48665;SDS011;34452;50.796;4.994;2023-02-22T04:12:07;58.20;;;10.93;;
48665;SDS011;34452;50.796;4.994;2023-02-22T04:14:33;21.00;;;9.05;;
48665;SDS011;34452;50.796;4.994;2023-02-22T04:16:59;19.67;;;10.60;;
48665;SDS011;34452;50.796;4.994;2023-02-22T04:19:25;16.25;;;8.95;;
48665;SDS011;34452;50.796;4.994;2023-02-22T04:24:16;13.80;;;8.52;;
48665;SDS011;34452;50.796;4.994;2023-02-22T04:26:42;11.80;;;8.77;;
48665;SDS011;34452;50.796;4.994;2023-02-22T04:29:08;10.50;;;8.00;;
48665;SDS011;34452;50.796;4.994;2023-02-22T04:31:34;11.35;;;7.75;;
48665;SDS011;34452;50.796;4.994;2023-02-22T04:34:00;15.05;;;8.32;;
48665;SDS011;34452;50.796;4.994;2023-02-22T04:36:27;12.85;;;8.82;;
48665;SDS011;34452;50.796;4.994;2023-02-22T04:38:55;15.23;;;9.48;;
48665;SDS011;34452;50.796;4.994;2023-02-22T04:41:22;14.15;;;8.90;;
48665;SDS011;34452;50.796;4.994;2023-02-22T04:43:47;13.27;;;9.60;;
48665;SDS011;34452;50.796;4.994;2023-02-22T04:46:13;15.15;;;8.65;;
48665;SDS011;34452;50.796;4.994;2023-02-22T04:48:39;23.75;;;9.93;;
48665;SDS011;34452;50.796;4.994;2023-02-22T04:51:05;15.98;;;9.65;;
48665;SDS011;34452;50.796;4.994;2023-02-22T04:53:32;25.40;;;9.13;;
48665;SDS011;34452;50.796;4.994;2023-02-22T04:55:58;31.50;;;11.00;;
48665;SDS011;34452;50.796;4.994;2023-02-22T04:58:23;19.13;;;10.43;;
48665;SDS011;34452;50.796;4.994;2023-02-22T05:00:49;26.13;;;9.18;;
48665;SDS011;34452;50.796;4.994;2023-02-22T05:03:15;19.45;;;9.70;;
48665;SDS011;34452;50.796;4.994;2023-02-22T05:05:40;28.70;;;9.27;;
48665;SDS011;34452;50.796;4.994;2023-02-22T05:08:06;21.77;;;9.82;;
48665;SDS011;34452;50.796;4.994;2023-02-22T05:10:32;18.25;;;10.73;;
48665;SDS011;34452;50.796;4.994;2023-02-22T05:12:58;23.58;;;10.35;;
48665;SDS011;34452;50.796;4.994;2023-02-22T05:15:24;21.38;;;10.45;;
48665;SDS011;34452;50.796;4.994;2023-02-22T05:17:50;13.15;;;9.82;;
48665;SDS011;34452;50.796;4.994;2023-02-22T05:23:01;12.38;;;8.93;;
48665;SDS011;34452;50.796;4.994;2023-02-22T05:27:53;12.15;;;8.38;;
48665;SDS011;34452;50.796;4.994;2023-02-22T05:30:23;12.45;;;9.02;;
48665;SDS011;34452;50.796;4.994;2023-02-22T05:32:51;12.90;;;9.05;;
48665;SDS011;34452;50.796;4.994;2023-02-22T05:35:20;12.05;;;8.52;;
48665;SDS011;34452;50.796;4.994;2023-02-22T05:37:47;12.52;;;8.27;;
48665;SDS011;34452;50.796;4.994;2023-02-22T05:40:14;12.00;;;8.38;;
48665;SDS011;34452;50.796;4.994;2023-02-22T05:42:42;21.70;;;10.70;;
48665;SDS011;34452;50.796;4.994;2023-02-22T05:45:10;17.33;;;10.18;;
48665;SDS011;34452;50.796;4.994;2023-02-22T05:47:37;18.55;;;11.73;;
48665;SDS011;34452;50.796;4.994;2023-02-22T05:50:03;19.90;;;10.30;;
48665;SDS011;34452;50.796;4.994;2023-02-22T05:52:29;15.05;;;10.10;;
48665;SDS011;34452;50.796;4.994;2023-02-22T05:54:54;16.75;;;10.50;;
48665;SDS011;34452;50.796;4.994;2023-02-22T05:57:20;16.02;;;11.07;;
48665;SDS011;34452;50.796;4.994;2023-02-22T05:59:46;28.02;;;12.05;;
48665;SDS011;34452;50.796;4.994;2023-02-22T06:02:11;20.42;;;10.55;;
48665;SDS011;34452;50.796;4.994;2023-02-22T06:04:37;16.43;;;11.33;;
48665;SDS011;34452;50.796;4.994;2023-02-22T06:09:30;21.50;;;11.20;;
48665;SDS011;34452;50.796;4.994;2023-02-22T06:11:56;28.17;;;13.50;;
48665;SDS011;34452;50.796;4.994;2023-02-22T06:14:21;12.27;;;8.10;;
48665;SDS011;34452;50.796;4.994;2023-02-22T06:19:27;15.35;;;8.85;;
48665;SDS011;34452;50.796;4.994;2023-02-22T06:21:54;15.13;;;8.43;;
48665;SDS011;34452;50.796;4.994;2023-02-22T06:24:21;11.80;;;7.93;;
48665;SDS011;34452;50.796;4.994;2023-02-22T06:29:29;15.77;;;8.45;;
48665;SDS011;34452;50.796;4.994;2023-02-22T06:31:55;12.00;;;8.07;;
48665;SDS011;34452;50.796;4.994;2023-02-22T06:34:21;11.68;;;8.30;;
48665;SDS011;34452;50.796;4.994;2023-02-22T06:36:47;12.05;;;7.80;;
48665;SDS011;34452;50.796;4.994;2023-02-22T06:39:14;14.00;;;8.18;;
48665;SDS011;34452;50.796;4.994;2023-02-22T06:41:42;15.20;;;9.13;;
48665;SDS011;34452;50.796;4.994;2023-02-22T06:44:08;15.50;;;8.30;;
48665;SDS011;34452;50.796;4.994;2023-02-22T06:46:35;15.70;;;9.95;;
48665;SDS011;34452;50.796;4.994;2023-02-22T06:49:01;12.73;;;8.82;;
48665;SDS011;34452;50.796;4.994;2023-02-22T06:51:26;14.10;;;8.80;;
48665;SDS011;34452;50.796;4.994;2023-02-22T06:53:53;12.38;;;8.50;;
48665;SDS011;34452;50.796;4.994;2023-02-22T06:56:19;17.20;;;9.95;;
48665;SDS011;34452;50.796;4.994;2023-02-22T06:58:45;16.48;;;9.60;;
48665;SDS011;34452;50.796;4.994;2023-02-22T07:01:11;15.75;;;9.25;;
48665;SDS011;34452;50.796;4.994;2023-02-22T07:03:36;17.73;;;9.82;;
48665;SDS011;34452;50.796;4.994;2023-02-22T07:06:02;18.55;;;11.00;;
48665;SDS011;34452;50.796;4.994;2023-02-22T07:08:29;14.32;;;9.55;;
48665;SDS011;34452;50.796;4.994;2023-02-22T07:10:55;12.27;;;8.32;;
48665;SDS011;34452;50.796;4.994;2023-02-22T07:13:20;12.13;;;7.95;;
48665;SDS011;34452;50.796;4.994;2023-02-22T07:15:46;14.85;;;8.73;;
48665;SDS011;34452;50.796;4.994;2023-02-22T07:18:12;11.45;;;8.80;;
48665;SDS011;34452;50.796;4.994;2023-02-22T07:20:38;14.45;;;8.68;;
48665;SDS011;34452;50.796;4.994;2023-02-22T07:23:04;12.07;;;8.45;;
48665;SDS011;34452;50.796;4.994;2023-02-22T07:25:30;13.13;;;7.90;;
48665;SDS011;34452;50.796;4.994;2023-02-22T07:27:56;10.93;;;7.45;;
48665;SDS011;34452;50.796;4.994;2023-02-22T07:33:07;11.40;;;7.72;;
48665;SDS011;34452;50.796;4.994;2023-02-22T07:35:36;11.35;;;7.22;;
48665;SDS011;34452;50.796;4.994;2023-02-22T07:38:04;12.27;;;8.75;;
48665;SDS011;34452;50.796;4.994;2023-02-22T07:40:32;11.35;;;7.80;;
48665;SDS011;34452;50.796;4.994;2023-02-22T07:45:55;19.25;;;9.27;;
48665;SDS011;34452;50.796;4.994;2023-02-22T07:48:23;17.08;;;8.55;;
48665;SDS011;34452;50.796;4.994;2023-02-22T07:50:50;11.07;;;7.53;;
48665;SDS011;34452;50.796;4.994;2023-02-22T07:53:19;14.85;;;8.93;;
48665;SDS011;34452;50.796;4.994;2023-02-22T07:55:46;11.95;;;8.07;;
48665;SDS011;34452;50.796;4.994;2023-02-22T07:58:15;12.25;;;8.40;;
48665;SDS011;34452;50.796;4.994;2023-02-22T08:00:42;12.48;;;8.77;;
48665;SDS011;34452;50.796;4.994;2023-02-22T08:03:09;12.70;;;8.80;;
48665;SDS011;34452;50.796;4.994;2023-02-22T08:05:37;13.40;;;9.48;;
48665;SDS011;34452;50.796;4.994;2023-02-22T08:08:04;15.25;;;8.27;;
48665;SDS011;34452;50.796;4.994;2023-02-22T08:10:31;12.02;;;8.48;;
48665;SDS011;34452;50.796;4.994;2023-02-22T08:12:58;14.20;;;9.10;;
48665;SDS011;34452;50.796;4.994;2023-02-22T08:15:26;16.08;;;10.20;;
48665;SDS011;34452;50.796;4.994;2023-02-22T08:17:54;15.15;;;9.60;;
48665;SDS011;34452;50.796;4.994;2023-02-22T08:20:21;17.77;;;9.90;;
48665;SDS011;34452;50.796;4.994;2023-02-22T08:22:46;19.02;;;10.20;;
48665;SDS011;34452;50.796;4.994;2023-02-22T08:25:14;15.63;;;8.90;;
48665;SDS011;34452;50.796;4.994;2023-02-22T08:27:41;16.80;;;9.15;;
48665;SDS011;34452;50.796;4.994;2023-02-22T08:30:08;18.70;;;10.15;;
48665;SDS011;34452;50.796;4.994;2023-02-22T08:32:46;16.83;;;9.52;;
48665;SDS011;34452;50.796;4.994;2023-02-22T08:35:13;18.80;;;9.85;;
48665;SDS011;34452;50.796;4.994;2023-02-22T08:37:42;14.48;;;9.40;;
48665;SDS011;34452;50.796;4.994;2023-02-22T08:40:08;15.18;;;9.48;;
48665;SDS011;34452;50.796;4.994;2023-02-22T08:42:34;15.18;;;8.75;;
48665;SDS011;34452;50.796;4.994;2023-02-22T08:45:00;19.87;;;8.87;;
48665;SDS011;34452;50.796;4.994;2023-02-22T08:47:26;20.17;;;9.93;;
48665;SDS011;34452;50.796;4.994;2023-02-22T08:49:51;17.95;;;9.48;;
48665;SDS011;34452;50.796;4.994;2023-02-22T08:52:18;17.60;;;9.32;;
48665;SDS011;34452;50.796;4.994;2023-02-22T08:54:45;19.48;;;9.85;;
48665;SDS011;34452;50.796;4.994;2023-02-22T08:57:11;16.85;;;9.00;;
48665;SDS011;34452;50.796;4.994;2023-02-22T08:59:37;16.45;;;9.27;;
48665;SDS011;34452;50.796;4.994;2023-02-22T09:02:03;17.30;;;9.63;;
48665;SDS011;34452;50.796;4.994;2023-02-22T09:04:29;13.38;;;8.75;;
48665;SDS011;34452;50.796;4.994;2023-02-22T09:06:54;18.00;;;9.47;;
48665;SDS011;34452;50.796;4.994;2023-02-22T09:09:20;16.75;;;8.88;;
48665;SDS011;34452;50.796;4.994;2023-02-22T09:11:46;16.03;;;8.47;;
48665;SDS011;34452;50.796;4.994;2023-02-22T09:14:12;16.52;;;9.02;;
48665;SDS011;34452;50.796;4.994;2023-02-22T09:16:40;17.20;;;9.10;;
48665;SDS011;34452;50.796;4.994;2023-02-22T09:19:07;14.27;;;8.50;;
48665;SDS011;34452;50.796;4.994;2023-02-22T09:21:33;18.40;;;8.98;;
48665;SDS011;34452;50.796;4.994;2023-02-22T09:23:58;14.50;;;8.50;;
48665;SDS011;34452;50.796;4.994;2023-02-22T09:26:32;11.55;;;7.30;;
48665;SDS011;34452;50.796;4.994;2023-02-22T09:28:58;16.80;;;9.07;;
48665;SDS011;34452;50.796;4.994;2023-02-22T09:31:24;17.45;;;8.98;;
48665;SDS011;34452;50.796;4.994;2023-02-22T09:33:50;16.13;;;8.90;;
48665;SDS011;34452;50.796;4.994;2023-02-22T09:36:16;15.95;;;10.52;;
48665;SDS011;34452;50.796;4.994;2023-02-22T09:38:42;14.33;;;9.00;;
48665;SDS011;34452;50.796;4.994;2023-02-22T09:46:42;17.50;;;8.27;;
48665;SDS011;34452;50.796;4.994;2023-02-22T09:54:31;16.83;;;8.38;;
48665;SDS011;34452;50.796;4.994;2023-02-22T09:57:19;16.63;;;7.93;;
48665;SDS011;34452;50.796;4.994;2023-02-22T09:59:56;19.70;;;8.13;;
48665;SDS011;34452;50.796;4.994;2023-02-22T10:02:37;17.92;;;8.93;;
48665;SDS011;34452;50.796;4.994;2023-02-22T10:05:22;16.92;;;8.45;;
48665;SDS011;34452;50.796;4.994;2023-02-22T10:07:59;14.63;;;8.77;;
48665;SDS011;34452;50.796;4.994;2023-02-22T10:10:31;14.40;;;8.05;;
48665;SDS011;34452;50.796;4.994;2023-02-22T10:13:10;13.85;;;8.05;;
48665;SDS011;34452;50.796;4.994;2023-02-22T10:15:57;24.10;;;8.75;;
48665;SDS011;34452;50.796;4.994;2023-02-22T10:21:40;13.82;;;7.07;;
48665;SDS011;34452;50.796;4.994;2023-02-22T10:27:36;10.32;;;7.35;;
48665;SDS011;34452;50.796;4.994;2023-02-22T10:32:57;13.85;;;7.95;;
48665;SDS011;34452;50.796;4.994;2023-02-22T10:35:43;13.35;;;7.82;;
48665;SDS011;34452;50.796;4.994;2023-02-22T10:40:39;11.93;;;7.55;;
48665;SDS011;34452;50.796;4.994;2023-02-22T10:43:10;19.70;;;8.23;;
48665;SDS011;34452;50.796;4.994;2023-02-22T10:45:36;14.73;;;7.25;;
48665;SDS011;34452;50.796;4.994;2023-02-22T10:48:04;16.27;;;8.65;;
48665;SDS011;34452;50.796;4.994;2023-02-22T10:50:34;18.20;;;8.57;;
48665;SDS011;34452;50.796;4.994;2023-02-22T10:53:03;13.38;;;8.13;;
48665;SDS011;34452;50.796;4.994;2023-02-22T10:55:29;15.73;;;8.00;;
48665;SDS011;34452;50.796;4.994;2023-02-22T10:58:05;15.25;;;8.52;;
48665;SDS011;34452;50.796;4.994;2023-02-22T11:00:35;16.73;;;8.95;;
48665;SDS011;34452;50.796;4.994;2023-02-22T11:03:05;13.63;;;8.52;;
48665;SDS011;34452;50.796;4.994;2023-02-22T11:05:52;13.18;;;8.55;;
48665;SDS011;34452;50.796;4.994;2023-02-22T11:11:00;16.65;;;8.18;;
48665;SDS011;34452;50.796;4.994;2023-02-22T11:13:30;16.23;;;9.95;;
48665;SDS011;34452;50.796;4.994;2023-02-22T11:16:16;16.15;;;9.73;;
48665;SDS011;34452;50.796;4.994;2023-02-22T11:18:44;14.57;;;8.38;;
48665;SDS011;34452;50.796;4.994;2023-02-22T11:21:11;17.58;;;9.40;;
48665;SDS011;34452;50.796;4.994;2023-02-22T11:23:42;15.13;;;9.15;;
48665;SDS011;34452;50.796;4.994;2023-02-22T11:26:10;17.27;;;9.38;;
48665;SDS011;34452;50.796;4.994;2023-02-22T11:28:40;16.15;;;9.35;;
48665;SDS011;34452;50.796;4.994;2023-02-22T11:31:22;16.85;;;9.60;;
48665;SDS011;34452;50.796;4.994;2023-02-22T11:33:53;17.23;;;9.38;;
48665;SDS011;34452;50.796;4.994;2023-02-22T11:41:49;18.10;;;10.35;;
48665;SDS011;34452;50.796;4.994;2023-02-22T11:47:00;19.15;;;10.05;;
48665;SDS011;34452;50.796;4.994;2023-02-22T11:49:38;17.92;;;10.02;;
48665;SDS011;34452;50.796;4.994;2023-02-22T11:54:54;17.42;;;10.10;;
48665;SDS011;34452;50.796;4.994;2023-02-22T12:11:23;17.92;;;11.45;;
48665;SDS011;34452;50.796;4.994;2023-02-22T12:14:13;19.88;;;11.27;;
48665;SDS011;34452;50.796;4.994;2023-02-22T12:22:31;20.25;;;10.63;;
48665;SDS011;34452;50.796;4.994;2023-02-22T12:25:01;16.95;;;10.60;;
48665;SDS011;34452;50.796;4.994;2023-02-22T12:27:34;22.70;;;12.45;;
48665;SDS011;34452;50.796;4.994;2023-02-22T12:30:09;16.63;;;10.90;;
48665;SDS011;34452;50.796;4.994;2023-02-22T12:32:41;18.38;;;11.07;;
48665;SDS011;34452;50.796;4.994;2023-02-22T12:40:45;19.92;;;10.38;;
48665;SDS011;34452;50.796;4.994;2023-02-22T12:43:19;20.40;;;11.07;;
48665;SDS011;34452;50.796;4.994;2023-02-22T12:51:22;20.10;;;11.73;;
48665;SDS011;34452;50.796;4.994;2023-02-22T12:59:31;19.35;;;12.15;;
48665;SDS011;34452;50.796;4.994;2023-02-22T13:02:04;23.10;;;12.80;;
48665;SDS011;34452;50.796;4.994;2023-02-22T13:04:40;18.40;;;12.48;;
48665;SDS011;34452;50.796;4.994;2023-02-22T13:15:44;19.73;;;13.05;;
48665;SDS011;34452;50.796;4.994;2023-02-22T13:18:27;27.98;;;14.05;;
48665;SDS011;34452;50.796;4.994;2023-02-22T13:28:47;22.17;;;13.52;;
48665;SDS011;34452;50.796;4.994;2023-02-22T13:31:43;20.65;;;12.35;;
48665;SDS011;34452;50.796;4.994;2023-02-22T13:48:47;21.48;;;12.60;;
48665;SDS011;34452;50.796;4.994;2023-02-22T13:56:50;21.83;;;13.68;;
48665;SDS011;34452;50.796;4.994;2023-02-22T13:59:29;29.20;;;14.35;;
48665;SDS011;34452;50.796;4.994;2023-02-22T14:01:58;25.48;;;14.30;;
48665;SDS011;34452;50.796;4.994;2023-02-22T14:06:54;23.27;;;14.23;;
48665;SDS011;34452;50.796;4.994;2023-02-22T14:12:27;21.67;;;13.32;;
48665;SDS011;34452;50.796;4.994;2023-02-22T14:17:43;21.10;;;14.38;;
48665;SDS011;34452;50.796;4.994;2023-02-22T14:20:26;29.52;;;15.20;;
48665;SDS011;34452;50.796;4.994;2023-02-22T14:22:57;28.17;;;15.30;;
48665;SDS011;34452;50.796;4.994;2023-02-22T14:25:43;26.13;;;17.80;;
48665;SDS011;34452;50.796;4.994;2023-02-22T14:28:38;28.05;;;17.05;;
48665;SDS011;34452;50.796;4.994;2023-02-22T14:31:18;24.33;;;16.10;;
48665;SDS011;34452;50.796;4.994;2023-02-22T14:39:05;27.15;;;16.55;;
48665;SDS011;34452;50.796;4.994;2023-02-22T14:41:33;29.58;;;16.67;;
48665;SDS011;34452;50.796;4.994;2023-02-22T14:44:01;27.42;;;16.15;;
48665;SDS011;34452;50.796;4.994;2023-02-22T14:46:30;31.65;;;17.00;;
48665;SDS011;34452;50.796;4.994;2023-02-22T14:49:01;30.00;;;16.90;;
48665;SDS011;34452;50.796;4.994;2023-02-22T14:51:30;31.27;;;17.33;;
48665;SDS011;34452;50.796;4.994;2023-02-22T15:00:01;30.23;;;17.73;;
48665;SDS011;34452;50.796;4.994;2023-02-22T15:02:43;27.23;;;17.20;;
48665;SDS011;34452;50.796;4.994;2023-02-22T15:05:13;26.02;;;17.63;;
48665;SDS011;34452;50.796;4.994;2023-02-22T15:10:31;28.70;;;16.92;;
48665;SDS011;34452;50.796;4.994;2023-02-22T15:13:22;36.22;;;18.27;;
48665;SDS011;34452;50.796;4.994;2023-02-22T15:18:34;29.00;;;19.25;;
48665;SDS011;34452;50.796;4.994;2023-02-22T15:21:06;34.95;;;21.42;;
48665;SDS011;34452;50.796;4.994;2023-02-22T15:23:41;38.78;;;21.40;;
48665;SDS011;34452;50.796;4.994;2023-02-22T15:31:44;27.90;;;18.80;;
48665;SDS011;34452;50.796;4.994;2023-02-22T15:36:54;32.80;;;20.83;;
48665;SDS011;34452;50.796;4.994;2023-02-22T15:39:32;28.75;;;19.75;;
48665;SDS011;34452;50.796;4.994;2023-02-22T15:44:43;30.63;;;19.45;;
48665;SDS011;34452;50.796;4.994;2023-02-22T15:47:15;34.63;;;19.75;;
48665;SDS011;34452;50.796;4.994;2023-02-22T15:49:43;26.83;;;17.88;;
48665;SDS011;34452;50.796;4.994;2023-02-22T15:52:16;39.15;;;20.55;;
48665;SDS011;34452;50.796;4.994;2023-02-22T15:54:45;30.00;;;19.77;;
48665;SDS011;34452;50.796;4.994;2023-02-22T15:57:15;30.27;;;19.50;;
48665;SDS011;34452;50.796;4.994;2023-02-22T15:59:46;28.73;;;19.73;;
48665;SDS011;34452;50.796;4.994;2023-02-22T16:02:19;29.90;;;20.38;;
48665;SDS011;34452;50.796;4.994;2023-02-22T16:05:04;31.70;;;19.63;;
48665;SDS011;34452;50.796;4.994;2023-02-22T16:07:34;31.77;;;19.35;;
48665;SDS011;34452;50.796;4.994;2023-02-22T16:10:03;29.50;;;19.65;;
48665;SDS011;34452;50.796;4.994;2023-02-22T16:12:33;28.92;;;20.33;;
48665;SDS011;34452;50.796;4.994;2023-02-22T16:15:00;30.73;;;20.35;;
48665;SDS011;34452;50.796;4.994;2023-02-22T16:17:29;34.80;;;21.00;;
48665;SDS011;34452;50.796;4.994;2023-02-22T16:20:27;30.27;;;20.73;;
48665;SDS011;34452;50.796;4.994;2023-02-22T16:22:46;34.35;;;20.45;;
48665;SDS011;34452;50.796;4.994;2023-02-22T16:25:21;35.47;;;21.73;;
48665;SDS011;34452;50.796;4.994;2023-02-22T16:27:54;34.40;;;22.05;;
48665;SDS011;34452;50.796;4.994;2023-02-22T16:30:24;30.73;;;20.88;;
48665;SDS011;34452;50.796;4.994;2023-02-22T16:33:12;34.40;;;21.92;;
48665;SDS011;34452;50.796;4.994;2023-02-22T16:35:40;34.95;;;22.75;;
48665;SDS011;34452;50.796;4.994;2023-02-22T16:38:16;35.65;;;23.23;;
48665;SDS011;34452;50.796;4.994;2023-02-22T16:43:28;35.30;;;22.30;;
48665;SDS011;34452;50.796;4.994;2023-02-22T16:45:57;34.15;;;24.10;;
48665;SDS011;34452;50.796;4.994;2023-02-22T16:48:43;37.13;;;22.27;;
48665;SDS011;34452;50.796;4.994;2023-02-22T16:54:03;38.30;;;23.25;;
48665;SDS011;34452;50.796;4.994;2023-02-22T16:58:56;42.42;;;25.13;;
48665;SDS011;34452;50.796;4.994;2023-02-22T17:01:25;40.30;;;24.63;;
48665;SDS011;34452;50.796;4.994;2023-02-22T17:03:51;41.87;;;24.33;;
48665;SDS011;34452;50.796;4.994;2023-02-22T17:06:18;46.60;;;25.85;;
48665;SDS011;34452;50.796;4.994;2023-02-22T17:08:44;41.45;;;26.38;;
48665;SDS011;34452;50.796;4.994;2023-02-22T17:11:11;39.55;;;25.58;;
48665;SDS011;34452;50.796;4.994;2023-02-22T17:13:38;34.40;;;23.58;;
48665;SDS011;34452;50.796;4.994;2023-02-22T17:16:05;40.38;;;25.30;;
48665;SDS011;34452;50.796;4.994;2023-02-22T17:18:31;40.05;;;25.65;;
48665;SDS011;34452;50.796;4.994;2023-02-22T17:20:58;41.63;;;26.50;;
48665;SDS011;34452;50.796;4.994;2023-02-22T17:23:26;41.00;;;26.95;;
48665;SDS011;34452;50.796;4.994;2023-02-22T17:25:54;44.30;;;27.17;;
48665;SDS011;34452;50.796;4.994;2023-02-22T17:28:23;46.78;;;28.30;;
48665;SDS011;34452;50.796;4.994;2023-02-22T17:30:50;45.47;;;28.20;;
48665;SDS011;34452;50.796;4.994;2023-02-22T17:33:19;43.47;;;28.25;;
48665;SDS011;34452;50.796;4.994;2023-02-22T17:35:50;45.30;;;27.27;;
48665;SDS011;34452;50.796;4.994;2023-02-22T17:38:17;46.33;;;28.20;;
48665;SDS011;34452;50.796;4.994;2023-02-22T17:40:44;48.63;;;30.60;;
48665;SDS011;34452;50.796;4.994;2023-02-22T17:43:12;47.88;;;29.63;;
48665;SDS011;34452;50.796;4.994;2023-02-22T17:45:40;47.28;;;29.52;;
48665;SDS011;34452;50.796;4.994;2023-02-22T17:48:06;51.58;;;29.60;;
48665;SDS011;34452;50.796;4.994;2023-02-22T17:53:14;47.50;;;29.70;;
48665;SDS011;34452;50.796;4.994;2023-02-22T17:55:45;46.53;;;29.85;;
48665;SDS011;34452;50.796;4.994;2023-02-22T18:00:38;42.05;;;28.00;;
48665;SDS011;34452;50.796;4.994;2023-02-22T18:05:49;41.35;;;27.80;;
48665;SDS011;34452;50.796;4.994;2023-02-22T18:08:16;40.70;;;28.80;;
48665;SDS011;34452;50.796;4.994;2023-02-22T18:13:11;49.03;;;29.45;;
48665;SDS011;34452;50.796;4.994;2023-02-22T18:15:42;50.63;;;29.63;;
48665;SDS011;34452;50.796;4.994;2023-02-22T18:20:33;42.70;;;29.70;;
48665;SDS011;34452;50.796;4.994;2023-02-22T18:23:16;51.42;;;31.33;;
48665;SDS011;34452;50.796;4.994;2023-02-22T18:25:45;52.33;;;30.80;;
48665;SDS011;34452;50.796;4.994;2023-02-22T18:28:13;51.75;;;31.85;;
48665;SDS011;34452;50.796;4.994;2023-02-22T18:30:38;51.13;;;31.70;;
48665;SDS011;34452;50.796;4.994;2023-02-22T18:33:05;54.97;;;33.80;;
48665;SDS011;34452;50.796;4.994;2023-02-22T18:35:35;55.97;;;33.97;;
48665;SDS011;34452;50.796;4.994;2023-02-22T18:38:02;58.90;;;34.97;;
48665;SDS011;34452;50.796;4.994;2023-02-22T18:42:54;66.97;;;38.53;;
48665;SDS011;34452;50.796;4.994;2023-02-22T18:45:20;59.58;;;35.47;;
48665;SDS011;34452;50.796;4.994;2023-02-22T18:50:12;77.68;;;43.25;;